CYQI

Yarmouth Airport

Yarmouth, , Canada
TAF CYQI 260540Z 2606/2618 16020G30KT 3SM -RA BR OVC007 TEMPO 2606/2610 3/4SM -RA BR BKN002 OVC007 FM261000 17020G35KT 1/2SM -RA -DZ FG VV002 RMK NXT FCST BY 261200Z
Issued Valid From Valid To
Apr-26 @ 05:40 UTC
(21 minutes ago)
Apr-26 @ 06:00 UTC
(a minute ago)
Apr-26 @ 18:00 UTC
(in 12 hours)
Apr-26 @ 06:00 to Apr-26 @ 10:00
TAF CYQI 260540Z 2606/2618 16020G30KT 3SM -RA BR OVC007
Wind Visibility Clouds Conditions
160° at 20 knots
 Gusting to 30 knots
3 miles
  • Overcast at 700' AGL
  • Light Rain
  • Mist
Temporary Apr-26 @ 06:00 to Apr-26 @ 10:00
TEMPO 2606/2610 3/4SM -RA BR BKN002 OVC007
Visibility Clouds Conditions
3/4 miles
  • Broken at 200' AGL
  • Overcast at 700' AGL
  • Light Rain
  • Mist
From Apr-26 @ 10:00 to Apr-26 @ 18:00
FM261000 17020G35KT 1/2SM -RA -DZ FG VV002 RMK NXT FCST BY 261200Z
Wind Visibility Clouds Conditions
170° at 20 knots
 Gusting to 35 knots
1/2 miles
  • Vertical visibility at 200' AGL
  • Light Rain
  • Light Drizzle
  • Fog
TAF CYQI 260540Z 2606/2618 16020G30KT 3SM -RA BR OVC007 TEMPO 2606/2610 3/4SM -RA BR BKN002 OVC007 FM261000 17020G35KT 1/2SM -RA -DZ FG VV002 RMK NXT FCST BY 261200Z
Issued Apr-26 @ 05:40 UTC
(21 minutes ago)
Valid From Apr-26 @ 06:00 UTC
(a minute ago)
Valid To Apr-26 @ 18:00 UTC
(in 12 hours)
Apr-26 @ 06:00 - Apr-26 @ 10:00
Wind Visibility
160° at 20 knots
 Gusting to 30 knots
3 miles
Clouds
  • Overcast at 700' AGL
Conditions
  • Light Rain
  • Mist
Temporary Apr-26 @ 06:00 - Apr-26 @ 10:00
Clouds
  • Broken at 200' AGL
  • Overcast at 700' AGL
Conditions
  • Light Rain
  • Mist
From Apr-26 @ 10:00 - Apr-26 @ 18:00
Wind Visibility
170° at 20 knots
 Gusting to 35 knots
1/2 miles
Clouds
  • Vertical visibility at 200' AGL
Conditions
  • Light Rain
  • Light Drizzle
  • Fog